Time;durP1;ratioP1;P1;durP2;ratioP2;P2;SDS_P1;SDS_P2;PMS_P1;PMS_P2;Temp;Humidity;BMP_temperature;BMP_pressure;BME280_temperature;BME280_humidity;BME280_pressure;Samples;Min_cycle;Max_cycle;Signal;HPM_P1;HPM_P2
2023/11/01 00:00:15;;;;;;;1.9;1.6;;;;;;;;;;;;;
2023/11/01 00:02:42;;;;;;;3.1;1.7;;;;;;;;;;;;;
2023/11/01 00:05:07;;;;;;;3.1;1.3;;;;;;;;;;;;;
2023/11/01 00:07:32;;;;;;;3.7;1.7;;;;;;;;;;;;;
2023/11/01 00:09:57;;;;;;;2.5;1.4;;;;;;;;;;;;;
2023/11/01 00:12:24;;;;;;;3;1.6;;;;;;;;;;;;;
2023/11/01 00:14:48;;;;;;;3.1;1.7;;;;;;;;;;;;;
2023/11/01 00:17:21;;;;;;;3;1.9;;;;;;;;;;;;;
2023/11/01 00:19:52;;;;;;;1.6;1.5;;;;;;;;;;;;;
2023/11/01 00:22:22;;;;;;;2;1.5;;;;;;;;;;;;;
2023/11/01 00:24:51;;;;;;;2.2;1.8;;;;;;;;;;;;;
2023/11/01 00:27:24;;;;;;;2.2;1.6;;;;;;;;;;;;;
2023/11/01 00:29:47;;;;;;;2.8;2.1;;;;;;;;;;;;;
2023/11/01 00:32:14;;;;;;;1.7;1.6;;;;;;;;;;;;;
2023/11/01 00:34:38;;;;;;;1.4;1.3;;;;;;;;;;;;;
2023/11/01 00:37:04;;;;;;;1.3;1.2;;;;;;;;;;;;;
2023/11/01 00:39:31;;;;;;;1.1;1;;;;;;;;;;;;;
2023/11/01 00:41:57;;;;;;;1.1;0.9;;;;;;;;;;;;;
2023/11/01 00:44:26;;;;;;;1;0.9;;;;;;;;;;;;;
2023/11/01 00:46:51;;;;;;;1.6;0.8;;;;;;;;;;;;;
2023/11/01 00:49:18;;;;;;;1;0.9;;;;;;;;;;;;;
2023/11/01 00:51:43;;;;;;;0.8;0.8;;;;;;;;;;;;;
2023/11/01 00:54:09;;;;;;;1.2;1.1;;;;;;;;;;;;;
2023/11/01 00:56:34;;;;;;;1.7;1.6;;;;;;;;;;;;;
2023/11/01 00:59:00;;;;;;;1.7;1.3;;;;;;;;;;;;;
2023/11/01 01:01:25;;;;;;;1.3;1.2;;;;;;;;;;;;;
2023/11/01 01:03:50;;;;;;;2;1.5;;;;;;;;;;;;;
2023/11/01 01:06:16;;;;;;;1.8;1.4;;;;;;;;;;;;;
2023/11/01 01:08:41;;;;;;;1.6;1.4;;;;;;;;;;;;;
2023/11/01 01:11:06;;;;;;;1.8;1.4;;;;;;;;;;;;;
2023/11/01 01:13:34;;;;;;;1.5;1.2;;;;;;;;;;;;;
2023/11/01 01:15:59;;;;;;;1.7;1.3;;;;;;;;;;;;;
2023/11/01 01:18:24;;;;;;;2.1;1.3;;;;;;;;;;;;;
2023/11/01 01:20:49;;;;;;;3;2.4;;;;;;;;;;;;;
2023/11/01 01:23:17;;;;;;;1.7;1.5;;;;;;;;;;;;;
2023/11/01 01:25:42;;;;;;;1.7;1.3;;;;;;;;;;;;;
2023/11/01 01:28:08;;;;;;;2.1;1.4;;;;;;;;;;;;;
2023/11/01 01:30:33;;;;;;;1.7;1.4;;;;;;;;;;;;;
2023/11/01 01:33:00;;;;;;;1.2;1.1;;;;;;;;;;;;;
2023/11/01 01:35:25;;;;;;;1;0.8;;;;;;;;;;;;;
2023/11/01 01:37:50;;;;;;;0.8;0.7;;;;;;;;;;;;;
2023/11/01 01:40:15;;;;;;;0.5;0.5;;;;;;;;;;;;;
2023/11/01 01:42:41;;;;;;;0.6;0.5;;;;;;;;;;;;;
2023/11/01 01:45:06;;;;;;;0.8;0.7;;;;;;;;;;;;;
2023/11/01 01:47:33;;;;;;;0.6;0.6;;;;;;;;;;;;;
2023/11/01 01:49:58;;;;;;;0.6;0.6;;;;;;;;;;;;;
2023/11/01 01:52:23;;;;;;;0.4;0.4;;;;;;;;;;;;;
2023/11/01 01:54:51;;;;;;;0.3;0.3;;;;;;;;;;;;;
2023/11/01 01:57:16;;;;;;;0.7;0.5;;;;;;;;;;;;;
2023/11/01 01:59:42;;;;;;;0.6;0.6;;;;;;;;;;;;;
2023/11/01 02:02:08;;;;;;;0.6;0.6;;;;;;;;;;;;;
2023/11/01 02:04:32;;;;;;;0.4;0.4;;;;;;;;;;;;;
2023/11/01 02:06:58;;;;;;;0.8;0.6;;;;;;;;;;;;;
2023/11/01 02:09:26;;;;;;;1.4;0.9;;;;;;;;;;;;;
2023/11/01 02:11:53;;;;;;;1.6;1.2;;;;;;;;;;;;;
2023/11/01 02:14:24;;;;;;;2.1;1.4;;;;;;;;;;;;;
2023/11/01 02:16:54;;;;;;;3.5;1.9;;;;;;;;;;;;;
2023/11/01 02:19:21;;;;;;;1.5;1;;;;;;;;;;;;;
2023/11/01 02:21:42;;;;;;;1.3;0.9;;;;;;;;;;;;;
2023/11/01 02:24:08;;;;;;;0.7;0.7;;;;;;;;;;;;;
2023/11/01 02:26:33;;;;;;;0.5;0.5;;;;;;;;;;;;;
2023/11/01 02:29:00;;;;;;;0.5;0.5;;;;;;;;;;;;;
2023/11/01 02:31:25;;;;;;;1.4;1.1;;;;;;;;;;;;;
2023/11/01 02:33:52;;;;;;;0.9;0.7;;;;;;;;;;;;;
2023/11/01 02:36:17;;;;;;;1;0.8;;;;;;;;;;;;;
2023/11/01 02:38:43;;;;;;;1.7;1.5;;;;;;;;;;;;;
2023/11/01 02:41:08;;;;;;;1.6;1.2;;;;;;;;;;;;;
2023/11/01 02:43:35;;;;;;;0.8;0.8;;;;;;;;;;;;;
2023/11/01 02:46:00;;;;;;;0.7;0.6;;;;;;;;;;;;;
2023/11/01 02:48:26;;;;;;;0.5;0.5;;;;;;;;;;;;;
2023/11/01 02:50:50;;;;;;;0.7;0.6;;;;;;;;;;;;;
2023/11/01 02:53:16;;;;;;;1.4;1.2;;;;;;;;;;;;;
2023/11/01 02:55:41;;;;;;;2;0.9;;;;;;;;;;;;;
2023/11/01 02:58:07;;;;;;;1.5;1.4;;;;;;;;;;;;;
2023/11/01 03:00:32;;;;;;;1.2;0.9;;;;;;;;;;;;;
2023/11/01 03:02:59;;;;;;;0.7;0.7;;;;;;;;;;;;;
2023/11/01 03:05:27;;;;;;;0.7;0.7;;;;;;;;;;;;;
2023/11/01 03:07:50;;;;;;;0.7;0.6;;;;;;;;;;;;;
2023/11/01 03:10:19;;;;;;;0.6;0.5;;;;;;;;;;;;;
2023/11/01 03:12:45;;;;;;;0.3;0.3;;;;;;;;;;;;;
2023/11/01 03:15:15;;;;;;;0.8;0.5;;;;;;;;;;;;;
2023/11/01 03:17:45;;;;;;;0.5;0.5;;;;;;;;;;;;;
2023/11/01 03:20:10;;;;;;;0.6;0.6;;;;;;;;;;;;;
2023/11/01 03:22:35;;;;;;;0.5;0.5;;;;;;;;;;;;;
2023/11/01 03:25:00;;;;;;;0.5;0.5;;;;;;;;;;;;;
2023/11/01 03:27:29;;;;;;;0.7;0.7;;;;;;;;;;;;;
2023/11/01 03:29:54;;;;;;;1.2;1;;;;;;;;;;;;;
2023/11/01 03:32:24;;;;;;;4.8;3.2;;;;;;;;;;;;;
2023/11/01 03:34:51;;;;;;;2.5;1.1;;;;;;;;;;;;;
2023/11/01 03:37:17;;;;;;;0.4;0.4;;;;;;;;;;;;;
2023/11/01 03:39:46;;;;;;;1.2;0.8;;;;;;;;;;;;;
2023/11/01 03:42:11;;;;;;;1.7;0.7;;;;;;;;;;;;;
2023/11/01 03:44:38;;;;;;;0.9;0.8;;;;;;;;;;;;;
2023/11/01 03:47:03;;;;;;;0.7;0.7;;;;;;;;;;;;;
2023/11/01 03:49:30;;;;;;;0.8;0.8;;;;;;;;;;;;;
2023/11/01 03:51:55;;;;;;;0.6;0.6;;;;;;;;;;;;;
2023/11/01 03:54:21;;;;;;;0.7;0.7;;;;;;;;;;;;;
2023/11/01 03:56:46;;;;;;;0.7;0.7;;;;;;;;;;;;;
2023/11/01 03:59:12;;;;;;;1.2;0.7;;;;;;;;;;;;;
2023/11/01 04:02:36;;;;;;;0.6;0.6;;;;;;;5.16;100;933.4005;;;;
2023/11/01 04:05:01;;;;;;;0.5;0.5;;;;;;;5.14;98.95117;933.2548;;;;
2023/11/01 04:07:30;;;;;;;0.7;0.5;;;;;;;5.06;99.55078;933.2057;;;;
2023/11/01 04:09:59;;;;;;;0.6;0.5;;;;;;;4.99;99.68262;933.1724;;;;
2023/11/01 04:12:24;;;;;;;1.3;0.7;;;;;;;4.93;99.52148;933.1094;;;;
2023/11/01 04:14:53;;;;;;;0.6;0.6;;;;;;;4.83;100;933.1617;;;;
2023/11/01 04:17:18;;;;;;;0.7;0.6;;;;;;;4.9;100;933.1964;;;;
2023/11/01 04:19:50;;;;;;;0.6;0.6;;;;;;;4.82;100;933.175;;;;
2023/11/01 04:22:21;;;;;;;0.6;0.6;;;;;;;4.67;100;933.0728;;;;
2023/11/01 04:24:47;;;;;;;1.5;0.8;;;;;;;4.8;100;933.0378;;;;
2023/11/01 04:27:13;;;;;;;1.4;1;;;;;;;4.87;100;932.9459;;;;
2023/11/01 04:29:43;;;;;;;2.7;1.8;;;;;;;4.96;100;933.0203;;;;
2023/11/01 04:32:08;;;;;;;5.6;3.2;;;;;;;4.88;100;933.062;;;;
2023/11/01 04:34:37;;;;;;;3.4;1.9;;;;;;;4.85;100;933.092;;;;
2023/11/01 04:37:02;;;;;;;6.3;2.5;;;;;;;4.86;100;933.022;;;;
2023/11/01 04:39:36;;;;;;;5;2.2;;;;;;;4.94;100;933.0016;;;;
2023/11/01 04:42:04;;;;;;;3.3;2;;;;;;;4.86;100;932.9772;;;;
2023/11/01 04:44:25;;;;;;;3.6;2.1;;;;;;;4.83;100;932.8392;;;;
2023/11/01 04:46:53;;;;;;;1.2;0.9;;;;;;;4.79;100;932.9279;;;;
2023/11/01 04:49:17;;;;;;;1.7;1.6;;;;;;;4.7;100;932.8795;;;;
2023/11/01 04:51:47;;;;;;;1.6;1.5;;;;;;;4.62;100;932.9303;;;;
2023/11/01 04:54:12;;;;;;;1.4;1.3;;;;;;;4.61;100;932.9238;;;;
2023/11/01 04:56:37;;;;;;;0.6;0.6;;;;;;;4.64;100;932.9678;;;;
2023/11/01 04:59:04;;;;;;;1.4;1.2;;;;;;;4.63;100;932.9487;;;;
2023/11/01 05:01:30;;;;;;;1.4;0.9;;;;;;;4.63;100;932.8794;;;;
2023/11/01 05:03:54;;;;;;;1;0.9;;;;;;;4.65;100;932.8222;;;;
2023/11/01 05:06:22;;;;;;;1.9;1.5;;;;;;;4.56;100;932.7838;;;;
2023/11/01 05:08:47;;;;;;;4.4;2.9;;;;;;;4.45;100;932.7252;;;;
2023/11/01 05:11:16;;;;;;;3.3;2.1;;;;;;;4.4;100;932.6484;;;;
2023/11/01 05:13:41;;;;;;;2.9;2;;;;;;;4.32;100;932.5792;;;;
2023/11/01 05:16:08;;;;;;;2.5;1.4;;;;;;;4.29;100;932.6392;;;;
2023/11/01 05:18:33;;;;;;;1.2;1.1;;;;;;;4.17;100;932.6219;;;;
2023/11/01 05:21:01;;;;;;;1.4;1.3;;;;;;;4.11;100;932.5606;;;;
2023/11/01 05:23:26;;;;;;;0.9;0.7;;;;;;;3.97;100;932.6418;;;;
2023/11/01 05:25:54;;;;;;;0.7;0.7;;;;;;;3.88;100;932.6192;;;;
2023/11/01 05:28:19;;;;;;;0.6;0.6;;;;;;;3.84;100;932.6088;;;;
2023/11/01 05:30:45;;;;;;;1.1;0.7;;;;;;;3.78;100;932.5801;;;;
2023/11/01 05:33:19;;;;;;;0.6;0.6;;;;;;;3.78;100;932.5676;;;;
2023/11/01 05:35:44;;;;;;;0.6;0.6;;;;;;;3.81;100;932.5294;;;;
2023/11/01 05:38:10;;;;;;;0.8;0.8;;;;;;;3.82;100;932.4485;;;;
2023/11/01 05:40:45;;;;;;;2;0.9;;;;;;;3.94;100;932.3702;;;;
2023/11/01 05:43:18;;;;;;;2;1.3;;;;;;;3.95;100;932.4297;;;;
2023/11/01 05:45:43;;;;;;;1.7;1.4;;;;;;;4.01;100;932.41;;;;
2023/11/01 05:48:12;;;;;;;2.3;2.1;;;;;;;4;100;932.4631;;;;
2023/11/01 05:50:40;;;;;;;1.8;1.7;;;;;;;4.06;100;932.4514;;;;
2023/11/01 05:53:10;;;;;;;2.2;1.4;;;;;;;4.02;100;932.4551;;;;
2023/11/01 05:55:33;;;;;;;1.1;1;;;;;;;4.11;100;932.4456;;;;
2023/11/01 05:58:02;;;;;;;0.8;0.8;;;;;;;4.25;100;932.4501;;;;
2023/11/01 06:00:27;;;;;;;0.8;0.8;;;;;;;4.09;100;932.3782;;;;
2023/11/01 06:03:00;;;;;;;0.6;0.6;;;;;;;4.2;100;932.402;;;;
2023/11/01 06:05:25;;;;;;;0.5;0.5;;;;;;;4.22;100;932.4847;;;;
2023/11/01 06:07:54;;;;;;;0.5;0.5;;;;;;;4.19;100;932.5081;;;;
2023/11/01 06:10:22;;;;;;;0.7;0.7;;;;;;;4.19;100;932.4726;;;;
2023/11/01 06:12:49;;;;;;;0.5;0.5;;;;;;;4.04;100;932.4817;;;;
2023/11/01 06:15:14;;;;;;;1.3;0.7;;;;;;;4.04;100;932.4738;;;;
2023/11/01 06:17:42;;;;;;;0.7;0.7;;;;;;;4.13;100;932.4768;;;;
2023/11/01 06:20:07;;;;;;;0.9;0.8;;;;;;;4.27;100;932.5294;;;;
2023/11/01 06:22:37;;;;;;;0.9;0.9;;;;;;;4.32;100;932.5311;;;;
2023/11/01 06:25:10;;;;;;;1;1;;;;;;;4.24;100;932.5609;;;;
2023/11/01 06:27:38;;;;;;;0.9;0.8;;;;;;;4.43;100;932.5111;;;;
2023/11/01 06:30:04;;;;;;;1.2;1.1;;;;;;;4.31;100;932.4922;;;;
2023/11/01 06:32:35;;;;;;;1.4;1;;;;;;;4.25;100;932.4664;;;;
2023/11/01 06:35:04;;;;;;;1;1;;;;;;;4.32;100;932.3956;;;;
2023/11/01 06:37:36;;;;;;;15.6;9;;;;;;;4.19;100;932.4877;;;;
2023/11/01 06:40:01;;;;;;;1.9;1.5;;;;;;;4.15;100;932.4953;;;;
2023/11/01 06:42:31;;;;;;;182.1;78.9;;;;;;;4.44;100;932.4885;;;;
2023/11/01 06:44:57;;;;;;;1.6;1.1;;;;;;;4.68;100;932.428;;;;
2023/11/01 06:47:25;;;;;;;2.5;1.9;;;;;;;4.93;100;932.4105;;;;
2023/11/01 06:49:57;;;;;;;2.9;1.5;;;;;;;4.97;100;932.413;;;;
2023/11/01 06:52:29;;;;;;;1.9;1.2;;;;;;;5.24;100;932.3519;;;;
2023/11/01 06:54:57;;;;;;;2.6;2.4;;;;;;;5.48;98.10547;932.3884;;;;
2023/11/01 06:57:26;;;;;;;3.7;3.1;;;;;;;5.55;97.80371;932.4039;;;;
2023/11/01 06:59:56;;;;;;;1.8;1.6;;;;;;;5.76;97.09766;932.4231;;;;
2023/11/01 07:02:23;;;;;;;1.8;1.2;;;;;;;5.99;96.30078;932.3897;;;;
2023/11/01 07:04:54;;;;;;;3.3;2.1;;;;;;;6.34;94.50098;932.4086;;;;
2023/11/01 07:07:24;;;;;;;4.1;2.5;;;;;;;6.54;93.79883;932.4095;;;;
2023/11/01 07:09:49;;;;;;;2.9;2;;;;;;;6.59;92.75879;932.4467;;;;
2023/11/01 07:12:21;;;;;;;2.9;2;;;;;;;6.67;92.22363;932.3367;;;;
2023/11/01 07:14:44;;;;;;;6.3;3.9;;;;;;;6.69;92.27051;932.2918;;;;
2023/11/01 07:17:11;;;;;;;24.2;10.6;;;;;;;6.51;92.78809;932.262;;;;
2023/11/01 07:19:36;;;;;;;18.3;7.3;;;;;;;6.7;93.24805;932.2729;;;;
2023/11/01 07:22:07;;;;;;;44.3;19.3;;;;;;;6.83;92.94727;932.1666;;;;
2023/11/01 07:24:37;;;;;;;7;3.8;;;;;;;7.09;91.66504;932.0229;;;;
2023/11/01 07:27:02;;;;;;;2.2;1.6;;;;;;;7.22;91.12793;931.948;;;;
2023/11/01 07:29:30;;;;;;;1.9;1.8;;;;;;;7.28;91.22949;932.0437;;;;
2023/11/01 07:31:56;;;;;;;7.7;4;;;;;;;7.35;90.74609;931.9645;;;;
2023/11/01 07:34:25;;;;;;;1.1;1;;;;;;;7.4;88.18457;931.95;;;;
2023/11/01 07:36:51;;;;;;;7.3;3.9;;;;;;;7.31;89.0166;931.9031;;;;
2023/11/01 07:39:16;;;;;;;5.5;3.3;;;;;;;7.39;89.75879;931.824;;;;
2023/11/01 07:41:44;;;;;;;11.7;5.9;;;;;;;7.63;88.8457;931.7891;;;;
2023/11/01 07:44:06;;;;;;;20;9;;;;;;;7.7;87.52246;931.8388;;;;
2023/11/01 07:46:35;;;;;;;2.6;1.8;;;;;;;7.74;89.26367;931.7544;;;;
2023/11/01 07:49:06;;;;;;;1.8;1.5;;;;;;;7.62;88.91211;931.6534;;;;
2023/11/01 07:51:33;;;;;;;2;1.5;;;;;;;7.76;89.55078;931.6032;;;;
2023/11/01 07:53:56;;;;;;;2.4;1.4;;;;;;;7.93;88.99805;931.6161;;;;
2023/11/01 07:56:24;;;;;;;1.8;1.5;;;;;;;7.98;87.45215;931.6355;;;;
2023/11/01 07:58:49;;;;;;;1.4;1.3;;;;;;;7.92;87.86133;931.6216;;;;
2023/11/01 08:01:19;;;;;;;1.8;1.3;;;;;;;7.96;88.1748;931.5974;;;;
2023/11/01 08:03:44;;;;;;;0.9;0.8;;;;;;;8.06;87.69629;931.4462;;;;
2023/11/01 08:06:12;;;;;;;1.2;1.1;;;;;;;7.87;88.71289;931.4459;;;;
2023/11/01 08:08:37;;;;;;;2.2;1.7;;;;;;;7.88;89.55566;931.4239;;;;
2023/11/01 08:11:07;;;;;;;2.3;1.5;;;;;;;8.03;89.62012;931.4055;;;;
2023/11/01 08:13:30;;;;;;;1.8;1.4;;;;;;;8.12;89.49121;931.3372;;;;
2023/11/01 08:16:00;;;;;;;2;1;;;;;;;8.16;88.69434;931.2963;;;;
2023/11/01 08:18:31;;;;;;;1.1;1;;;;;;;8.16;89.91016;931.3518;;;;
2023/11/01 08:20:55;;;;;;;1.9;1.4;;;;;;;8.1;88.76074;931.2903;;;;
2023/11/01 08:23:20;;;;;;;1.7;1.1;;;;;;;7.97;89.3457;931.339;;;;
2023/11/01 08:25:45;;;;;;;1.3;0.7;;;;;;;8.14;89.12012;931.2502;;;;
2023/11/01 08:28:12;;;;;;;0.6;0.6;;;;;;;8.23;89.15039;931.1852;;;;
2023/11/01 08:30:37;;;;;;;0.8;0.8;;;;;;;8.28;89.72949;931.119;;;;
2023/11/01 08:33:02;;;;;;;1.7;1.6;;;;;;;8.31;89.08789;931.1588;;;;
2023/11/01 08:35:32;;;;;;;1;0.9;;;;;;;8.38;85.66992;931.0469;;;;
2023/11/01 08:38:03;;;;;;;1.5;1.2;;;;;;;8.38;88.26074;930.9564;;;;
2023/11/01 08:40:34;;;;;;;15.4;6;;;;;;;8.26;85.60156;930.8801;;;;
2023/11/01 08:43:05;;;;;;;9.6;4.1;;;;;;;8.29;85.58594;930.8351;;;;
2023/11/01 08:45:36;;;;;;;7.7;3.4;;;;;;;8.18;87.85645;930.8381;;;;
2023/11/01 08:48:06;;;;;;;87.3;27.3;;;;;;;8.42;87.46289;930.8578;;;;
2023/11/01 08:50:34;;;;;;;119;33.9;;;;;;;8.43;88.02148;930.9372;;;;
2023/11/01 08:52:59;;;;;;;54;17.8;;;;;;;8.51;86.89258;930.9043;;;;
2023/11/01 08:55:27;;;;;;;35.6;10.9;;;;;;;8.6;85.97656;930.8698;;;;
2023/11/01 08:57:52;;;;;;;58.1;19.4;;;;;;;8.74;84.68457;930.835;;;;
2023/11/01 09:00:24;;;;;;;91.3;34.6;;;;;;;8.91;81.62402;930.8066;;;;
2023/11/01 09:02:52;;;;;;;23.6;11.9;;;;;;;8.79;80.37598;930.8599;;;;
2023/11/01 09:05:18;;;;;;;36.5;15.1;;;;;;;8.75;81.52539;930.8596;;;;
2023/11/01 09:07:46;;;;;;;31.7;15.4;;;;;;;8.86;81.99121;930.866;;;;
2023/11/01 09:10:12;;;;;;;33;13.6;;;;;;;8.97;80.7832;930.8265;;;;
2023/11/01 09:12:37;;;;;;;0.5;0.5;;;;;;;9.16;79.71484;930.6924;;;;
2023/11/01 09:15:03;;;;;;;3.8;1.8;;;;;;;9.59;81.12793;930.5681;;;;
2023/11/01 09:17:34;;;;;;;60.2;23.5;;;;;;;9.96;80.68262;930.6044;;;;
2023/11/01 09:20:06;;;;;;;15.2;6.4;;;;;;;10.17;77.25488;930.5192;;;;
2023/11/01 09:22:32;;;;;;;1.5;1;;;;;;;10.37;76.76563;930.3849;;;;
2023/11/01 09:24:57;;;;;;;4.8;2.3;;;;;;;10.45;76.44922;930.4511;;;;
2023/11/01 09:27:26;;;;;;;20.3;7.3;;;;;;;10.44;72.80566;930.3755;;;;
2023/11/01 09:29:51;;;;;;;7.9;0.8;;;;;;;10.32;72.4082;930.2347;;;;
2023/11/01 09:32:20;;;;;;;15.1;6.7;;;;;;;10.44;74.63281;930.288;;;;
2023/11/01 09:34:49;;;;;;;0.6;0.5;;;;;;;10.64;71.19336;930.1641;;;;
2023/11/01 09:37:14;;;;;;;0.4;0.3;;;;;;;10.42;72.99512;930.2164;;;;
2023/11/01 09:39:42;;;;;;;0.5;0.5;;;;;;;10.57;74.04785;930.1864;;;;
2023/11/01 09:42:13;;;;;;;0.4;0.4;;;;;;;10.86;74.06445;930.0981;;;;
2023/11/01 09:44:38;;;;;;;0.6;0.5;;;;;;;10.89;74.87988;930.0103;;;;
2023/11/01 09:47:06;;;;;;;0.4;0.4;;;;;;;10.85;72.59863;930.0186;;;;
2023/11/01 09:49:31;;;;;;;1.4;0.7;;;;;;;11.04;74.84961;929.9699;;;;
2023/11/01 09:52:00;;;;;;;1.2;0.6;;;;;;;11.16;73.34961;929.9636;;;;
2023/11/01 09:54:25;;;;;;;9.8;6;;;;;;;11.28;73.81641;929.8643;;;;
2023/11/01 09:57:01;;;;;;;0.3;0.3;;;;;;;11.41;71.72168;929.9128;;;;
2023/11/01 09:59:24;;;;;;;2.2;1.8;;;;;;;11.53;73.91504;929.7838;;;;
2023/11/01 10:01:52;;;;;;;3;2.1;;;;;;;11.68;72.55664;929.8052;;;;
2023/11/01 10:04:17;;;;;;;0.4;0.4;;;;;;;11.63;68.47266;929.7475;;;;
2023/11/01 10:06:44;;;;;;;0.3;0.3;;;;;;;11.64;67.76367;929.6964;;;;
2023/11/01 10:09:08;;;;;;;0.6;0.5;;;;;;;11.83;65.68652;929.6147;;;;
2023/11/01 10:11:36;;;;;;;7.6;3.2;;;;;;;11.89;66.49805;929.6092;;;;
2023/11/01 10:14:02;;;;;;;1.1;0.5;;;;;;;12.1;67.57227;929.6337;;;;
2023/11/01 10:16:29;;;;;;;42.9;18.2;;;;;;;12.2;65.69824;929.5952;;;;
2023/11/01 10:18:52;;;;;;;0.5;0.4;;;;;;;12.22;67.01953;929.5928;;;;
2023/11/01 10:21:18;;;;;;;1.3;0.9;;;;;;;12.18;67.79102;929.5364;;;;
2023/11/01 10:23:43;;;;;;;10.2;5.6;;;;;;;12.27;67.20898;929.4807;;;;
2023/11/01 10:26:14;;;;;;;12.1;6.2;;;;;;;12.42;67.66895;929.4662;;;;
2023/11/01 10:28:42;;;;;;;3.2;2.5;;;;;;;12.84;69.30762;929.4313;;;;
2023/11/01 10:31:07;;;;;;;0.4;0.3;;;;;;;12.84;65.35742;929.4272;;;;
2023/11/01 10:33:33;;;;;;;0.4;0.4;;;;;;;12.79;66.68262;929.3829;;;;
2023/11/01 10:35:57;;;;;;;0.5;0.5;;;;;;;12.87;67.57715;929.3989;;;;
2023/11/01 10:38:24;;;;;;;12;5.1;;;;;;;13.17;67.54297;929.4333;;;;
2023/11/01 10:40:49;;;;;;;25.6;10.5;;;;;;;13.09;64.80957;929.3312;;;;
2023/11/01 10:43:14;;;;;;;12.5;6.8;;;;;;;13;65.85254;929.2844;;;;
2023/11/01 10:45:39;;;;;;;0.7;0.6;;;;;;;13.29;66.0459;929.2778;;;;
2023/11/01 10:48:08;;;;;;;0.8;0.7;;;;;;;13.62;64.72852;929.1665;;;;
2023/11/01 10:50:34;;;;;;;0.4;0.4;;;;;;;13.98;62.24902;929.1893;;;;
2023/11/01 10:52:59;;;;;;;0.3;0.3;;;;;;;14.22;59.07129;929.0486;;;;
2023/11/01 10:55:27;;;;;;;1.1;0.4;;;;;;;14.38;57.43457;928.9677;;;;
2023/11/01 10:57:49;;;;;;;0.4;0.4;;;;;;;14.58;61.21777;928.8872;;;;
2023/11/01 11:00:21;;;;;;;0.7;0.7;;;;;;;14.89;55.94434;928.8491;;;;
2023/11/01 11:02:46;;;;;;;0.7;0.3;;;;;;;14.95;50.95703;928.8381;;;;
2023/11/01 11:05:10;;;;;;;1.7;1.2;;;;;;;14.68;52.17188;928.7748;;;;
2023/11/01 11:07:35;;;;;;;4.2;2.8;;;;;;;14.64;51.43945;928.8245;;;;
2023/11/01 11:10:01;;;;;;;0.8;0.8;;;;;;;15.04;54.76367;928.7996;;;;
2023/11/01 11:12:31;;;;;;;0.4;0.4;;;;;;;15.5;53.1582;928.752;;;;
2023/11/01 11:14:59;;;;;;;0.6;0.4;;;;;;;15.68;50.76563;928.7522;;;;
2023/11/01 11:17:25;;;;;;;0.4;0.3;;;;;;;15.97;53.45801;928.7594;;;;
2023/11/01 11:19:50;;;;;;;0.4;0.4;;;;;;;16.08;53.05566;928.7352;;;;
2023/11/01 11:22:16;;;;;;;0.3;0.3;;;;;;;15.8;49.95996;928.6479;;;;
2023/11/01 11:24:59;;;;;;;1.1;0.5;;;;;;;15.58;52.67188;928.592;;;;
2023/11/01 11:27:27;;;;;;;0.8;0.5;;;;;;;15.61;51.7168;928.6044;;;;
2023/11/01 11:29:52;;;;;;;0.8;0.7;;;;;;;15.53;55.56445;928.6046;;;;
2023/11/01 11:32:21;;;;;;;1;0.5;;;;;;;15.65;54.49414;928.6004;;;;
2023/11/01 11:34:43;;;;;;;1.3;0.5;;;;;;;16.08;52.4668;928.6089;;;;
2023/11/01 11:37:10;;;;;;;1.2;0.5;;;;;;;17.12;54.05176;928.631;;;;
2023/11/01 11:39:33;;;;;;;1.5;0.9;;;;;;;17.32;49.18164;928.5131;;;;
2023/11/01 11:42:02;;;;;;;0.5;0.4;;;;;;;17.8;45.09082;928.5215;;;;
2023/11/01 11:44:29;;;;;;;0.8;0.7;;;;;;;18.28;48.39453;928.5419;;;;
2023/11/01 11:46:59;;;;;;;0.5;0.5;;;;;;;18.1;48.25781;928.4601;;;;
2023/11/01 11:49:22;;;;;;;0.6;0.4;;;;;;;18.6;46.26563;928.3897;;;;
2023/11/01 11:51:51;;;;;;;0.4;0.4;;;;;;;19.74;47.38867;928.3694;;;;
2023/11/01 11:54:16;;;;;;;0.6;0.3;;;;;;;19.87;44.68555;928.2988;;;;
2023/11/01 11:56:45;;;;;;;0.6;0.3;;;;;;;20.3;42.27637;928.2978;;;;
2023/11/01 11:59:10;;;;;;;0.5;0.5;;;;;;;20.32;42.94434;928.2597;;;;
2023/11/01 12:01:35;;;;;;;0.4;0.4;;;;;;;20.47;40.64551;928.2644;;;;
2023/11/01 12:04:00;;;;;;;0.9;0.6;;;;;;;21.03;41.2002;928.2502;;;;
2023/11/01 12:06:26;;;;;;;1.4;0.7;;;;;;;21.75;39.84863;928.1317;;;;
2023/11/01 12:08:52;;;;;;;0.7;0.6;;;;;;;22.07;38.87109;928.1713;;;;
2023/11/01 12:11:17;;;;;;;0.7;0.4;;;;;;;22.97;36.76465;928.0408;;;;
2023/11/01 12:13:43;;;;;;;0.3;0.3;;;;;;;23.81;34.0332;928.05;;;;
2023/11/01 12:16:10;;;;;;;14;8.6;;;;;;;21.45;35.49121;928.0781;;;;
2023/11/01 12:18:35;;;;;;;0.8;0.6;;;;;;;19.94;37.5166;928.0748;;;;
2023/11/01 12:21:00;;;;;;;1.2;0.8;;;;;;;18.97;40.40332;927.9924;;;;
2023/11/01 12:23:25;;;;;;;1.1;0.9;;;;;;;18.69;43.03027;927.9697;;;;
2023/11/01 12:25:55;;;;;;;1.5;1;;;;;;;18.89;44.16602;927.8881;;;;
2023/11/01 12:28:21;;;;;;;1.1;0.8;;;;;;;18.56;43.37793;927.8741;;;;
2023/11/01 12:30:48;;;;;;;1.2;0.9;;;;;;;18.32;44.40039;927.8758;;;;
2023/11/01 12:33:14;;;;;;;0.7;0.7;;;;;;;18.43;46.20117;927.8636;;;;
2023/11/01 12:35:39;;;;;;;1.3;0.7;;;;;;;18.67;45.08691;927.8248;;;;
2023/11/01 12:38:04;;;;;;;0.6;0.5;;;;;;;18.56;46.36621;927.8211;;;;
2023/11/01 12:40:33;;;;;;;0.6;0.5;;;;;;;17.75;47.29199;927.8105;;;;
2023/11/01 12:43:00;;;;;;;0.8;0.5;;;;;;;17.58;48.39844;927.824;;;;
2023/11/01 12:45:25;;;;;;;1.4;0.9;;;;;;;16.78;48.81934;927.8088;;;;
2023/11/01 12:47:52;;;;;;;1.2;0.8;;;;;;;16.73;49.92578;927.7011;;;;
2023/11/01 12:50:22;;;;;;;2.1;0.8;;;;;;;16.48;51.37988;927.6813;;;;
2023/11/01 12:52:47;;;;;;;0.6;0.6;;;;;;;16.35;50.03418;927.5934;;;;
2023/11/01 12:55:11;;;;;;;0.4;0.4;;;;;;;16.28;51.98145;927.5513;;;;
2023/11/01 12:57:37;;;;;;;0.5;0.5;;;;;;;16.06;51.64258;927.5545;;;;
2023/11/01 13:00:02;;;;;;;1.4;0.7;;;;;;;16.08;51.35645;927.5923;;;;
2023/11/01 13:02:27;;;;;;;0.7;0.7;;;;;;;16.7;50.375;927.5097;;;;
2023/11/01 13:04:53;;;;;;;1.8;0.7;;;;;;;16.88;49.5498;927.5227;;;;
2023/11/01 13:07:22;;;;;;;1.6;1;;;;;;;18.55;46.49414;927.4672;;;;
2023/11/01 13:09:52;;;;;;;0.9;0.7;;;;;;;20.19;45.7207;927.3689;;;;
2023/11/01 13:12:17;;;;;;;1.3;1.2;;;;;;;21.29;42.00781;927.3842;;;;
2023/11/01 13:14:44;;;;;;;1.2;1.1;;;;;;;21.89;40.30664;927.3477;;;;
2023/11/01 13:17:09;;;;;;;1.2;0.6;;;;;;;21.47;39.11035;927.3836;;;;
2023/11/01 13:19:36;;;;;;;1.6;0.9;;;;;;;20.8;40.67578;927.3354;;;;
2023/11/01 13:22:01;;;;;;;1.4;0.9;;;;;;;20.03;42.00586;927.392;;;;
2023/11/01 13:24:29;;;;;;;1.7;0.9;;;;;;;19.17;44.38086;927.3619;;;;
2023/11/01 13:26:58;;;;;;;1;0.7;;;;;;;18.13;46.93652;927.4369;;;;
2023/11/01 13:29:25;;;;;;;1.5;0.8;;;;;;;17.25;46.50586;927.4471;;;;
2023/11/01 13:31:56;;;;;;;1.3;0.7;;;;;;;16.7;49.54102;927.4141;;;;
2023/11/01 13:34:21;;;;;;;1.5;1.1;;;;;;;16.04;49.16504;927.3912;;;;
2023/11/01 13:36:48;;;;;;;1.1;0.8;;;;;;;15.89;51.71387;927.3784;;;;
2023/11/01 13:39:13;;;;;;;1.4;0.8;;;;;;;15.83;52.875;927.3759;;;;
2023/11/01 13:41:41;;;;;;;1.5;0.6;;;;;;;15.76;51.29395;927.3409;;;;
2023/11/01 13:44:06;;;;;;;0.8;0.7;;;;;;;15.78;55.58496;927.3981;;;;
2023/11/01 13:46:32;;;;;;;0.7;0.7;;;;;;;15.56;55.73047;927.3689;;;;
2023/11/01 13:48:59;;;;;;;0.9;0.6;;;;;;;15.48;57.08105;927.3575;;;;
2023/11/01 13:51:25;;;;;;;0.7;0.5;;;;;;;15.32;58.6084;927.2949;;;;
2023/11/01 13:53:50;;;;;;;1.2;0.7;;;;;;;15.2;58.02734;927.2654;;;;
2023/11/01 13:56:19;;;;;;;1.6;0.6;;;;;;;14.96;57.32617;927.2307;;;;
2023/11/01 13:58:50;;;;;;;1.1;0.7;;;;;;;14.83;58.53027;927.2676;;;;
2023/11/01 14:01:10;;;;;;;0.8;0.6;;;;;;;14.27;56.49707;927.2859;;;;
2023/11/01 14:03:37;;;;;;;1.8;0.5;;;;;;;14.12;55.61621;927.2353;;;;
2023/11/01 14:06:02;;;;;;;1.6;0.8;;;;;;;14.1;55.09473;927.199;;;;
2023/11/01 14:08:30;;;;;;;0.6;0.6;;;;;;;14.25;56.65723;927.2344;;;;
2023/11/01 14:10:57;;;;;;;0.9;0.7;;;;;;;14.33;57.42676;927.1196;;;;
2023/11/01 14:13:21;;;;;;;1.1;1;;;;;;;14.61;59.00977;927.1479;;;;
2023/11/01 14:15:48;;;;;;;2.5;1.6;;;;;;;14.72;58.4248;927.2394;;;;
2023/11/01 14:18:18;;;;;;;1.9;1.3;;;;;;;14.53;55.51855;927.2757;;;;
2023/11/01 14:20:37;;;;;;;2.6;1.5;;;;;;;14.63;60.19922;927.2639;;;;
2023/11/01 14:23:01;;;;;;;7.7;5.6;;;;;;;14.32;66.89355;927.2833;;;;
2023/11/01 14:25:35;;;;;;;9.7;7.3;;;;;;;14.19;68.42871;927.1937;;;;
2023/11/01 14:28:02;;;;;;;8;5.9;;;;;;;14.28;69.52539;927.2073;;;;
2023/11/01 14:30:29;;;;;;;10.8;5.7;;;;;;;13.83;71.60449;927.2301;;;;
2023/11/01 14:32:59;;;;;;;9.6;5.1;;;;;;;13.45;72.24316;927.2171;;;;
2023/11/01 14:35:31;;;;;;;5.2;2.9;;;;;;;13.68;65.59863;927.204;;;;
2023/11/01 14:37:58;;;;;;;1.5;0.8;;;;;;;13.33;62.13379;927.1687;;;;
2023/11/01 14:40:30;;;;;;;1.5;1.2;;;;;;;13.23;64.32617;927.1595;;;;
2023/11/01 14:43:03;;;;;;;1.9;1.4;;;;;;;13.44;65.26465;927.1446;;;;
2023/11/01 14:45:33;;;;;;;3;1.9;;;;;;;13.47;68.37207;927.0751;;;;
2023/11/01 14:48:01;;;;;;;3.9;2.3;;;;;;;13.59;68.74707;927.1552;;;;
2023/11/01 14:50:27;;;;;;;4.6;3;;;;;;;13.6;71.41602;927.1166;;;;
2023/11/01 14:52:57;;;;;;;6.2;3.6;;;;;;;13.38;72.13965;927.131;;;;
2023/11/01 14:55:23;;;;;;;3.4;2.6;;;;;;;13.34;71.22559;927.0725;;;;
2023/11/01 14:57:51;;;;;;;2.2;1.2;;;;;;;13.2;70.92773;927.1166;;;;
2023/11/01 15:00:16;;;;;;;1.6;1.2;;;;;;;13.09;71.45996;927.0631;;;;
2023/11/01 15:02:46;;;;;;;0.9;0.9;;;;;;;13.01;72.39941;927.0635;;;;
2023/11/01 15:05:16;;;;;;;1.1;1;;;;;;;12.87;70.90723;927.0237;;;;
2023/11/01 15:07:43;;;;;;;2.3;1.7;;;;;;;12.89;68.90332;926.9961;;;;
2023/11/01 15:10:12;;;;;;;4;2.5;;;;;;;12.89;69.50879;927.0225;;;;
2023/11/01 15:12:37;;;;;;;4.5;2.3;;;;;;;12.93;70.42285;927.0506;;;;
2023/11/01 15:15:03;;;;;;;4.3;2.8;;;;;;;12.9;71.76172;927.0582;;;;
2023/11/01 15:17:29;;;;;;;3.3;2.2;;;;;;;12.85;72.68359;927.1094;;;;
2023/11/01 15:19:54;;;;;;;3.5;2.4;;;;;;;12.7;73.875;927.1325;;;;
2023/11/01 15:22:19;;;;;;;3.6;2.5;;;;;;;12.62;74.20508;927.0421;;;;
2023/11/01 15:24:44;;;;;;;2.5;1.9;;;;;;;12.48;73.75586;927.0728;;;;
2023/11/01 15:27:10;;;;;;;3.4;2.3;;;;;;;12.43;74.55273;927.0999;;;;
2023/11/01 15:29:36;;;;;;;2.2;1.6;;;;;;;12.43;73.89551;927.08;;;;
2023/11/01 15:32:04;;;;;;;5.5;1.7;;;;;;;12.38;74.39453;927.0764;;;;
2023/11/01 15:34:30;;;;;;;1.7;1.3;;;;;;;12.35;74.54883;927.1295;;;;
2023/11/01 15:36:56;;;;;;;1.9;1.5;;;;;;;12.33;74.95801;927.1387;;;;
2023/11/01 15:39:22;;;;;;;2.5;1.5;;;;;;;12.24;74.18555;927.109;;;;
2023/11/01 15:41:51;;;;;;;24.5;12.1;;;;;;;12.08;74.70801;926.8828;;;;
2023/11/01 15:44:17;;;;;;;17.6;8.7;;;;;;;11.98;74.91016;926.86;;;;
2023/11/01 15:46:44;;;;;;;48.6;22.6;;;;;;;11.93;76.21875;926.8694;;;;
2023/11/01 15:49:10;;;;;;;4.1;2.3;;;;;;;11.92;77.32813;926.9175;;;;
2023/11/01 15:51:35;;;;;;;3.4;2.5;;;;;;;11.89;71.56055;926.8677;;;;